createdAt,value
2019-03-30T00:00:03.600Z,102470.63
2019-03-30T00:02:35.405Z,102461.94
2019-03-30T00:05:02.302Z,102463.52
2019-03-30T00:07:31.236Z,102463.03
2019-03-30T00:09:59.775Z,102456.03
2019-03-30T00:12:28.257Z,102454.95
2019-03-30T00:14:56.791Z,102454.82
2019-03-30T00:17:25.547Z,102454.09
2019-03-30T00:19:54.233Z,102445.09
2019-03-30T00:22:22.736Z,102434.22
2019-03-30T00:24:51.426Z,102433.98
2019-03-30T00:27:19.912Z,102440.50
2019-03-30T00:29:48.795Z,102432.05
2019-03-30T00:32:17.264Z,102428.91
2019-03-30T00:34:45.807Z,102421.20
2019-03-30T00:37:14.448Z,102418.05
2019-03-30T00:39:42.943Z,102416.97
2019-03-30T00:42:11.774Z,102413.25
2019-03-30T00:48:09.390Z,102415.05
2019-03-30T00:50:37.958Z,102414.93
2019-03-30T00:53:06.426Z,102412.87
2019-03-30T00:55:35.465Z,102407.34
2019-03-30T00:58:03.949Z,102405.89
2019-03-30T01:00:32.499Z,102408.64
2019-03-30T01:03:01.538Z,102399.60
2019-03-30T01:05:30.018Z,102412.48
2019-03-30T01:07:58.658Z,102405.50
2019-03-30T01:10:27.458Z,102406.45
2019-03-30T01:12:56.178Z,102403.08
2019-03-30T01:15:24.893Z,102402.02
2019-03-30T01:17:53.547Z,102400.93
2019-03-30T01:20:22.032Z,102392.62
2019-03-30T01:22:50.517Z,102391.53
2019-03-30T01:25:19.026Z,102391.77
2019-03-30T01:27:47.504Z,102390.44
2019-03-30T01:30:22.907Z,102385.37
2019-03-30T01:32:47.512Z,102378.98
2019-03-30T01:35:16.020Z,102380.90
2019-03-30T01:37:44.649Z,102381.86
2019-03-30T01:40:13.367Z,102380.17
2019-03-30T01:42:42.013Z,102379.21
2019-03-30T01:45:10.697Z,102375.23
2019-03-30T01:47:39.405Z,102377.52
2019-03-30T01:50:17.064Z,102370.77
2019-03-30T01:52:40.451Z,102370.63
2019-03-30T01:55:09.482Z,102370.53
2019-03-30T01:57:37.957Z,102367.16
2019-03-30T02:00:10.911Z,102362.45
2019-03-30T02:02:39.602Z,102370.99
2019-03-30T02:05:08.315Z,102364.97
2019-03-30T02:07:36.803Z,102363.28
2019-03-30T02:10:06.522Z,102363.28
2019-03-30T02:12:34.994Z,102363.38
2019-03-30T02:15:04.889Z,102360.83
2019-03-30T02:17:33.727Z,102361.78
2019-03-30T02:20:03.336Z,102361.78
2019-03-30T02:22:31.822Z,102354.94
2019-03-30T02:25:00.384Z,102346.26
2019-03-30T02:27:28.854Z,102346.36
2019-03-30T02:29:57.326Z,102342.16
2019-03-30T02:32:25.911Z,102331.30
2019-03-30T02:34:54.398Z,102330.20
2019-03-30T02:37:22.971Z,102330.33
2019-03-30T02:39:51.861Z,102330.80
2019-03-30T02:42:20.616Z,102314.19
2019-03-30T02:44:49.125Z,102317.45
2019-03-30T02:47:17.853Z,102324.67
2019-03-30T02:49:46.403Z,102321.66
2019-03-30T02:52:15.017Z,102323.94
2019-03-30T02:54:43.791Z,102325.36
2019-03-30T02:57:12.455Z,102316.95
2019-03-30T02:59:41.058Z,102321.52
2019-03-30T03:02:10.417Z,102324.16
2019-03-30T03:04:39.231Z,102314.90
2019-03-30T03:07:07.730Z,102320.79
2019-03-30T03:09:36.440Z,102313.91
2019-03-30T03:12:04.950Z,102312.34
2019-03-30T03:14:33.461Z,102303.67
2019-03-30T03:17:02.151Z,102305.59
2019-03-30T03:19:30.609Z,102301.75
2019-03-30T03:21:59.400Z,102295.23
2019-03-30T03:24:28.206Z,102298.11
2019-03-30T03:26:56.692Z,102298.84
2019-03-30T03:29:25.167Z,102293.55
2019-03-30T03:31:53.675Z,102289.21
2019-03-30T03:34:22.149Z,102285.84
2019-03-30T03:36:50.677Z,102280.17
2019-03-30T03:39:19.182Z,102280.55
2019-03-30T03:41:47.752Z,102275.38
2019-03-30T03:44:16.452Z,102275.75
2019-03-30T03:46:44.974Z,102271.88
2019-03-30T03:49:13.452Z,102272.38
2019-03-30T03:51:42.161Z,102268.27
2019-03-30T03:54:11.222Z,102265.16
2019-03-30T03:56:40.768Z,102256.86
2019-03-30T03:59:10.834Z,102254.20
2019-03-30T04:01:41.616Z,102255.62
2019-03-30T04:04:12.616Z,102254.08
2019-03-30T04:06:43.642Z,102254.08
2019-03-30T04:09:15.534Z,102248.05
2019-03-30T04:11:45.705Z,102254.30
2019-03-30T04:14:16.329Z,102236.24
2019-03-30T04:16:45.616Z,102239.02
2019-03-30T04:19:14.091Z,102228.08
2019-03-30T04:21:44.635Z,102231.67
2019-03-30T04:24:13.091Z,102225.53
2019-03-30T04:26:41.618Z,102222.64
2019-03-30T04:29:10.296Z,102219.64
2019-03-30T04:31:39.041Z,102223.02
2019-03-30T04:34:07.512Z,102215.08
2019-03-30T04:36:36.051Z,102219.41
2019-03-30T04:39:05.613Z,102210.52
2019-03-30T04:41:34.089Z,102203.91
2019-03-30T04:44:02.631Z,102199.93
2019-03-30T04:46:31.142Z,102198.02
2019-03-30T04:48:59.620Z,102196.69
2019-03-30T04:51:28.099Z,102197.05
2019-03-30T04:53:57.137Z,102191.77
2019-03-30T04:56:25.640Z,102185.52
2019-03-30T04:58:54.127Z,102188.98
2019-03-30T05:01:22.691Z,102184.56
2019-03-30T05:03:51.158Z,102186.24
2019-03-30T05:06:19.645Z,102183.59
2019-03-30T05:08:48.227Z,102184.79
2019-03-30T05:11:17.021Z,102185.05
2019-03-30T05:13:45.529Z,102181.09
2019-03-30T05:16:14.114Z,102180.13
2019-03-30T05:18:42.610Z,102179.50
2019-03-30T05:21:11.124Z,102175.42
2019-03-30T05:23:39.894Z,102176.52
2019-03-30T05:26:08.373Z,102173.64
2019-03-30T05:28:36.851Z,102171.59
2019-03-30T05:31:05.364Z,102165.23
2019-03-30T05:33:34.198Z,102170.16
2019-03-30T05:36:02.682Z,102172.56
2019-03-30T05:38:31.303Z,102169.69
2019-03-30T05:40:59.778Z,102167.52
2019-03-30T05:43:28.293Z,102161.96
2019-03-30T05:45:56.788Z,102164.27
2019-03-30T05:48:25.300Z,102161.25
2019-03-30T05:50:53.784Z,102165.70
2019-03-30T05:53:22.296Z,102162.97
2019-03-30T05:55:50.767Z,102174.05
2019-03-30T05:58:19.258Z,102169.23
2019-03-30T06:00:48.361Z,102165.71
2019-03-30T06:03:16.842Z,102173.53
2019-03-30T06:05:45.306Z,102172.09
2019-03-30T06:08:15.331Z,102173.28
2019-03-30T06:10:43.842Z,102171.19
2019-03-30T06:13:12.322Z,102164.80
2019-03-30T06:15:41.288Z,102164.41
2019-03-30T06:18:11.404Z,102169.44
2019-03-30T06:20:40.089Z,102166.75
2019-03-30T06:23:15.759Z,102153.56
2019-03-30T06:25:44.363Z,102157.86
2019-03-30T06:28:13.827Z,102154.77
2019-03-30T06:30:43.331Z,102146.41
2019-03-30T06:33:13.766Z,102149.00
2019-03-30T06:35:46.440Z,102148.79
2019-03-30T06:38:16.274Z,102154.86
2019-03-30T06:40:45.830Z,102144.98
2019-03-30T06:43:15.374Z,102153.09
2019-03-30T06:45:45.692Z,102156.63
2019-03-30T06:48:14.647Z,102151.55
2019-03-30T06:50:43.426Z,102159.78
2019-03-30T06:53:12.549Z,102154.73
2019-03-30T06:55:41.272Z,102154.63
2019-03-30T06:58:10.213Z,102155.48
2019-03-30T07:00:39.610Z,102158.39
2019-03-30T07:03:09.036Z,102153.27
2019-03-30T07:05:43.144Z,102152.16
2019-03-30T07:08:17.040Z,102152.03
2019-03-30T07:10:46.946Z,102149.71
2019-03-30T07:13:15.817Z,102153.41
2019-03-30T07:15:49.250Z,102153.23
2019-03-30T07:18:18.742Z,102154.76
2019-03-30T07:20:47.656Z,102152.92
2019-03-30T07:23:16.373Z,102152.03
2019-03-30T07:25:44.871Z,102149.84
2019-03-30T07:28:13.337Z,102147.64
2019-03-30T07:30:41.956Z,102139.60
2019-03-30T07:33:10.435Z,102138.22
2019-03-30T07:35:38.982Z,102138.20
2019-03-30T07:38:07.668Z,102131.48
2019-03-30T07:40:36.135Z,102134.11
2019-03-30T07:43:04.732Z,102132.07
2019-03-30T07:45:34.078Z,102133.55
2019-03-30T07:48:02.590Z,102129.52
2019-03-30T07:50:31.147Z,102127.97
2019-03-30T07:52:59.682Z,102125.59
2019-03-30T07:55:28.158Z,102117.40
2019-03-30T07:57:57.676Z,102114.14
2019-03-30T08:00:30.708Z,102119.93
2019-03-30T08:02:57.345Z,102112.00
2019-03-30T08:05:25.876Z,102109.73
2019-03-30T08:07:54.589Z,102115.48
2019-03-30T08:10:23.419Z,102110.73
2019-03-30T08:12:51.893Z,102103.91
2019-03-30T08:15:21.127Z,102105.29
2019-03-30T08:17:49.768Z,102105.33
2019-03-30T08:20:18.400Z,102095.63
2019-03-30T08:22:47.124Z,102090.48
2019-03-30T08:25:15.605Z,102090.66
2019-03-30T08:27:44.312Z,102089.16
2019-03-30T08:30:13.393Z,102084.84
2019-03-30T08:32:41.871Z,102079.17
2019-03-30T08:35:11.679Z,102074.50
2019-03-30T08:37:40.610Z,102069.30
2019-03-30T08:40:09.512Z,102067.80
2019-03-30T08:42:41.009Z,102069.66
2019-03-30T08:45:10.219Z,102079.02
2019-03-30T08:47:38.768Z,102064.96
2019-03-30T08:50:09.145Z,102074.67
2019-03-30T08:52:37.707Z,102070.48
2019-03-30T08:55:08.233Z,102064.63
2019-03-30T08:57:37.546Z,102066.11
2019-03-30T09:00:07.416Z,102066.95
2019-03-30T09:02:35.896Z,102061.20
2019-03-30T09:05:06.431Z,102054.14
2019-03-30T09:07:34.988Z,102054.45
2019-03-30T09:10:05.657Z,102050.70
2019-03-30T09:12:34.312Z,102043.30
2019-03-30T09:15:03.051Z,102047.29
2019-03-30T09:17:31.534Z,102053.62
2019-03-30T09:20:00.016Z,102046.35
2019-03-30T09:22:29.726Z,102031.00
2019-03-30T09:24:58.268Z,102034.28
2019-03-30T09:27:26.775Z,102042.56
2019-03-30T09:29:55.281Z,102039.39
2019-03-30T09:32:23.769Z,102036.30
2019-03-30T09:34:52.307Z,102035.21
2019-03-30T09:37:20.915Z,102030.45
2019-03-30T09:39:49.515Z,102028.00
2019-03-30T09:42:18.135Z,102037.78
2019-03-30T09:44:46.873Z,102041.58
2019-03-30T09:47:15.471Z,102038.61
2019-03-30T09:49:44.044Z,102040.36
2019-03-30T09:52:12.620Z,102035.99
2019-03-30T09:54:41.105Z,102034.48
2019-03-30T09:57:09.856Z,102028.58
2019-03-30T09:59:38.495Z,102028.53
2019-03-30T10:02:07.006Z,102025.75
2019-03-30T10:04:35.678Z,102020.58
2019-03-30T10:07:04.719Z,102012.73
2019-03-30T10:09:33.326Z,102011.93
2019-03-30T10:12:02.193Z,102013.79
2019-03-30T10:14:30.697Z,102011.64
2019-03-30T10:16:59.436Z,102003.83
2019-03-30T10:19:27.996Z,102006.41
2019-03-30T10:21:56.636Z,102000.55
2019-03-30T10:24:37.525Z,102000.26
2019-03-30T10:26:55.691Z,101999.23
2019-03-30T10:29:24.338Z,101999.68
2019-03-30T10:31:53.402Z,101993.00
2019-03-30T10:34:22.117Z,101994.11
2019-03-30T10:36:51.169Z,101989.53
2019-03-30T10:39:19.656Z,101996.06
2019-03-30T10:41:48.149Z,101991.55
2019-03-30T10:44:16.730Z,101994.84
2019-03-30T10:46:45.175Z,101983.14
2019-03-30T10:49:14.122Z,101991.97
2019-03-30T10:51:42.719Z,101983.12
2019-03-30T10:54:11.219Z,101977.84
2019-03-30T10:56:39.819Z,101977.88
2019-03-30T10:59:08.498Z,101974.59
2019-03-30T11:01:36.993Z,101969.61
2019-03-30T11:04:05.569Z,101971.19
2019-03-30T11:06:35.477Z,101968.82
2019-03-30T11:09:04.926Z,101962.40
2019-03-30T11:11:33.404Z,101961.05
2019-03-30T11:14:02.024Z,101953.98
2019-03-30T11:16:30.508Z,101960.53
2019-03-30T11:18:59.177Z,101952.30
2019-03-30T11:21:27.680Z,101951.97
2019-03-30T11:23:59.471Z,101952.23
2019-03-30T11:26:28.079Z,101954.22
2019-03-30T11:28:56.617Z,101941.35
2019-03-30T11:31:25.222Z,101944.52
2019-03-30T11:33:53.719Z,101932.70
2019-03-30T11:36:22.319Z,101933.77
2019-03-30T11:38:51.164Z,101925.80
2019-03-30T11:41:19.998Z,101927.55
2019-03-30T11:43:48.538Z,101923.62
2019-03-30T11:46:17.478Z,101918.02
2019-03-30T11:48:45.959Z,101908.08
2019-03-30T11:51:14.774Z,101910.36
2019-03-30T11:53:43.345Z,101901.61
2019-03-30T11:56:11.829Z,101900.47
2019-03-30T11:58:40.343Z,101893.81
2019-03-30T12:01:08.831Z,101891.06
2019-03-30T12:03:37.320Z,101881.03
2019-03-30T12:06:06.151Z,101878.53
2019-03-30T12:08:34.791Z,101873.90
2019-03-30T12:11:03.869Z,101871.39
2019-03-30T12:13:32.387Z,101877.84
2019-03-30T12:16:00.887Z,101867.45
2019-03-30T12:18:29.927Z,101882.75
2019-03-30T12:20:59.226Z,101866.20
2019-03-30T12:23:27.950Z,101870.04
2019-03-30T12:25:56.433Z,101873.66
2019-03-30T12:28:25.113Z,101856.28
2019-03-30T12:30:54.008Z,101859.98
2019-03-30T12:33:22.511Z,101849.34
2019-03-30T12:35:51.206Z,101857.27
2019-03-30T12:38:19.797Z,101856.04
2019-03-30T12:40:48.411Z,101849.92
2019-03-30T12:43:17.111Z,101852.52
2019-03-30T12:45:45.713Z,101839.77
2019-03-30T12:48:14.205Z,101836.50
2019-03-30T12:50:43.125Z,101834.63
2019-03-30T12:53:11.692Z,101835.48
2019-03-30T12:55:49.169Z,101831.56
2019-03-30T12:58:11.803Z,101819.75
2019-03-30T13:00:40.418Z,101821.12
2019-03-30T13:03:08.978Z,101821.80
2019-03-30T13:05:37.636Z,101811.00
2019-03-30T13:08:06.371Z,101813.02
2019-03-30T13:10:35.006Z,101812.95
2019-03-30T13:13:03.816Z,101795.97
2019-03-30T13:15:32.488Z,101799.50
2019-03-30T13:18:01.074Z,101798.75
2019-03-30T13:20:29.953Z,101798.52
2019-03-30T13:22:58.442Z,101798.51
2019-03-30T13:25:26.929Z,101803.91
2019-03-30T13:27:55.602Z,101784.92
2019-03-30T13:33:12.038Z,101787.86
2019-03-30T13:35:40.527Z,101779.47
2019-03-30T13:38:09.153Z,101785.45
2019-03-30T13:40:39.272Z,101778.34
2019-03-30T13:43:07.796Z,101769.02
2019-03-30T13:45:36.421Z,101779.72
2019-03-30T13:48:04.952Z,101774.05
2019-03-30T13:50:33.426Z,101775.51
2019-03-30T13:53:01.937Z,101768.11
2019-03-30T13:55:30.662Z,101773.78
2019-03-30T13:57:59.511Z,101773.54
2019-03-30T14:00:28.041Z,101769.80
2019-03-30T14:02:56.899Z,101775.25
2019-03-30T14:05:25.702Z,101772.87
2019-03-30T14:07:54.359Z,101775.11
2019-03-30T14:10:23.566Z,101761.63
2019-03-30T14:12:52.054Z,101765.02
2019-03-30T14:15:20.529Z,101772.16
2019-03-30T14:17:49.208Z,101774.24
2019-03-30T14:20:17.690Z,101769.64
2019-03-30T14:22:46.746Z,101756.16
2019-03-30T14:25:15.262Z,101765.45
2019-03-30T14:27:43.861Z,101765.73
2019-03-30T14:30:13.105Z,101753.91
2019-03-30T14:32:42.161Z,101759.19
2019-03-30T14:35:10.920Z,101750.06
2019-03-30T14:37:39.420Z,101737.72
2019-03-30T14:40:09.709Z,101747.17
2019-03-30T14:42:38.275Z,101747.14
2019-03-30T14:45:07.890Z,101731.34
2019-03-30T14:47:36.437Z,101728.52
2019-03-30T14:50:07.979Z,101726.87
2019-03-30T14:52:37.109Z,101723.80
2019-03-30T14:55:08.999Z,101729.83
2019-03-30T14:57:37.490Z,101715.53
2019-03-30T15:00:09.800Z,101719.27
2019-03-30T15:02:38.556Z,101716.52
2019-03-30T15:05:08.744Z,101708.83
2019-03-30T15:07:37.581Z,101717.00
2019-03-30T15:10:08.382Z,101725.34
2019-03-30T15:12:37.731Z,101715.02
2019-03-30T15:15:08.451Z,101711.70
2019-03-30T15:17:40.748Z,101719.84
2019-03-30T15:20:12.807Z,101715.70
2019-03-30T15:22:41.547Z,101715.80
2019-03-30T15:25:11.764Z,101714.92
2019-03-30T15:27:40.363Z,101706.83
2019-03-30T15:30:09.605Z,101700.64
2019-03-30T15:32:38.336Z,101702.55
2019-03-30T15:35:07.946Z,101697.67
2019-03-30T15:37:36.431Z,101701.03
2019-03-30T15:40:07.214Z,101697.05
2019-03-30T15:42:35.967Z,101694.48
2019-03-30T15:45:07.094Z,101701.48
2019-03-30T15:47:35.981Z,101689.41
2019-03-30T15:50:05.894Z,101696.66
2019-03-30T15:52:34.624Z,101692.32
2019-03-30T15:55:04.342Z,101689.89
2019-03-30T15:57:32.812Z,101693.30
2019-03-30T16:00:01.290Z,101684.86
2019-03-30T16:02:29.846Z,101677.24
2019-03-30T16:04:58.412Z,101680.97
2019-03-30T16:07:26.889Z,101678.61
2019-03-30T16:09:55.630Z,101683.31
2019-03-30T16:12:25.456Z,101672.54
2019-03-30T16:14:54.240Z,101670.54
2019-03-30T16:17:22.836Z,101673.75
2019-03-30T16:19:51.323Z,101673.83
2019-03-30T16:22:19.965Z,101677.06
2019-03-30T16:24:48.472Z,101684.48
2019-03-30T16:27:28.205Z,101680.00
2019-03-30T16:29:47.332Z,101678.50
2019-03-30T16:32:16.222Z,101679.09
2019-03-30T16:34:46.921Z,101680.11
2019-03-30T16:37:15.466Z,101683.88
2019-03-30T16:39:44.216Z,101675.03
2019-03-30T16:42:12.693Z,101671.63
2019-03-30T16:44:41.184Z,101677.89
2019-03-30T16:47:09.986Z,101671.42
2019-03-30T16:49:38.474Z,101676.09
2019-03-30T16:52:07.129Z,101680.17
2019-03-30T16:54:35.615Z,101682.66
2019-03-30T16:57:05.290Z,101674.95
2019-03-30T16:59:33.789Z,101673.30
2019-03-30T17:02:02.831Z,101671.20
2019-03-30T17:04:31.491Z,101669.78
2019-03-30T17:07:00.101Z,101671.30
2019-03-30T17:09:28.600Z,101669.92
2019-03-30T17:11:57.067Z,101679.62
2019-03-30T17:14:25.581Z,101685.22
2019-03-30T17:16:54.107Z,101699.59
2019-03-30T17:19:22.822Z,101690.52
2019-03-30T17:21:51.303Z,101700.69
2019-03-30T17:24:20.013Z,101710.15
2019-03-30T17:26:48.509Z,101710.61
2019-03-30T17:29:17.006Z,101711.36
2019-03-30T17:31:45.570Z,101720.39
2019-03-30T17:34:14.219Z,101714.85
2019-03-30T17:36:42.743Z,101720.73
2019-03-30T17:39:12.591Z,101717.27
2019-03-30T17:41:41.174Z,101728.20
2019-03-30T17:44:09.657Z,101725.17
2019-03-30T17:46:38.174Z,101726.56
2019-03-30T17:49:06.749Z,101720.23
2019-03-30T17:51:35.278Z,101726.10
2019-03-30T17:54:03.785Z,101724.55
2019-03-30T17:56:32.265Z,101723.64
2019-03-30T17:59:00.746Z,101728.58
2019-03-30T18:01:29.639Z,101734.33
2019-03-30T18:03:58.131Z,101729.86
2019-03-30T18:06:27.534Z,101730.08
2019-03-30T18:08:56.107Z,101734.69
2019-03-30T18:11:24.584Z,101743.17
2019-03-30T18:13:53.377Z,101749.98
2019-03-30T18:16:22.460Z,101748.77
2019-03-30T18:18:51.328Z,101751.55
2019-03-30T18:21:19.822Z,101758.03
2019-03-30T18:23:48.543Z,101757.49
2019-03-30T18:26:17.010Z,101757.22
2019-03-30T18:28:45.568Z,101768.64
2019-03-30T18:31:14.229Z,101761.97
2019-03-30T18:33:43.173Z,101767.38
2019-03-30T18:36:14.779Z,101769.64
2019-03-30T18:38:47.275Z,101769.55
2019-03-30T18:41:15.844Z,101768.94
2019-03-30T18:43:44.492Z,101772.47
2019-03-30T18:46:12.962Z,101781.41
2019-03-30T18:48:41.551Z,101782.78
2019-03-30T18:51:10.029Z,101778.45
2019-03-30T18:53:38.863Z,101777.54
2019-03-30T18:56:07.367Z,101779.95
2019-03-30T18:58:41.833Z,101789.06
2019-03-30T19:01:06.296Z,101798.50
2019-03-30T19:03:34.773Z,101800.41
2019-03-30T19:06:06.283Z,101804.00
2019-03-30T19:08:34.851Z,101800.70
2019-03-30T19:11:03.521Z,101810.13
2019-03-30T19:13:32.509Z,101809.03
2019-03-30T19:16:01.194Z,101825.63
2019-03-30T19:18:29.731Z,101823.17
2019-03-30T19:20:58.593Z,101825.57
2019-03-30T19:23:27.095Z,101820.76
2019-03-30T19:25:55.706Z,101830.80
2019-03-30T19:28:24.343Z,101828.47
2019-03-30T19:30:52.818Z,101826.83
2019-03-30T19:33:21.318Z,101825.16
2019-03-30T19:35:49.920Z,101825.16
2019-03-30T19:38:18.395Z,101823.14
2019-03-30T19:40:46.881Z,101826.66
2019-03-30T19:43:15.672Z,101827.84
2019-03-30T19:45:44.133Z,101822.12
2019-03-30T19:48:12.855Z,101829.13
2019-03-30T19:50:41.463Z,101823.09
2019-03-30T19:53:09.926Z,101831.45
2019-03-30T19:55:38.765Z,101822.91
2019-03-30T19:58:07.570Z,101823.57
2019-03-30T20:00:38.655Z,101823.03
2019-03-30T20:03:06.407Z,101824.19
2019-03-30T20:05:35.168Z,101829.02
2019-03-30T20:08:12.096Z,101826.64
2019-03-30T20:10:34.160Z,101835.95
2019-03-30T20:13:02.835Z,101838.95
2019-03-30T20:15:31.660Z,101838.73
2019-03-30T20:18:00.174Z,101841.88
2019-03-30T20:20:28.682Z,101834.16
2019-03-30T20:22:57.160Z,101837.63
2019-03-30T20:25:26.115Z,101844.10
2019-03-30T20:27:55.069Z,101850.06
2019-03-30T20:30:24.555Z,101850.00
2019-03-30T20:32:53.196Z,101840.61
2019-03-30T20:35:21.772Z,101841.88
2019-03-30T20:37:50.248Z,101841.16
2019-03-30T20:40:18.726Z,101849.77
2019-03-30T20:42:47.333Z,101841.70
2019-03-30T20:45:16.169Z,101846.31
2019-03-30T20:47:44.725Z,101848.64
2019-03-30T20:50:14.494Z,101846.92
2019-03-30T20:52:42.969Z,101855.52
2019-03-30T20:55:11.675Z,101858.80
2019-03-30T20:57:40.213Z,101853.73
2019-03-30T21:00:11.298Z,101855.69
2019-03-30T21:02:39.768Z,101854.62
2019-03-30T21:05:09.827Z,101852.55
2019-03-30T21:07:41.659Z,101854.99
2019-03-30T21:10:09.153Z,101847.95
2019-03-30T21:12:37.739Z,101849.70
2019-03-30T21:15:07.227Z,101853.69
2019-03-30T21:17:35.978Z,101857.28
2019-03-30T21:20:06.614Z,101851.56
2019-03-30T21:22:35.105Z,101853.19
2019-03-30T21:25:04.759Z,101864.98
2019-03-30T21:27:33.348Z,101860.09
2019-03-30T21:30:02.023Z,101867.37
2019-03-30T21:32:30.481Z,101863.97
2019-03-30T21:34:59.204Z,101868.30
2019-03-30T21:37:27.822Z,101872.58
2019-03-30T21:39:56.557Z,101871.19
2019-03-30T21:42:25.281Z,101876.45
2019-03-30T21:44:53.919Z,101876.05
2019-03-30T21:47:22.398Z,101873.67
2019-03-30T21:49:50.996Z,101879.28
2019-03-30T21:52:19.466Z,101872.58
2019-03-30T21:54:47.953Z,101877.84
2019-03-30T21:57:16.568Z,101880.81
2019-03-30T21:59:45.086Z,101880.25
2019-03-30T22:02:13.537Z,101880.06
2019-03-30T22:04:42.424Z,101885.67
2019-03-30T22:07:11.325Z,101881.45
2019-03-30T22:09:39.804Z,101884.91
2019-03-30T22:12:08.332Z,101893.04
2019-03-30T22:14:37.264Z,101892.13
2019-03-30T22:17:05.733Z,101887.09
2019-03-30T22:19:34.353Z,101896.30
2019-03-30T22:22:03.019Z,101889.97
2019-03-30T22:24:31.490Z,101897.24
2019-03-30T22:26:59.998Z,101897.17
2019-03-30T22:29:28.480Z,101896.60
2019-03-30T22:31:56.965Z,101899.06
2019-03-30T22:34:25.577Z,101895.17
2019-03-30T22:36:54.051Z,101898.92
2019-03-30T22:39:22.567Z,101895.73
2019-03-30T22:41:51.128Z,101902.77
2019-03-30T22:44:19.598Z,101904.73
2019-03-30T22:46:48.097Z,101896.38
2019-03-30T22:49:16.742Z,101902.78
2019-03-30T22:51:45.210Z,101901.26
2019-03-30T22:54:13.686Z,101905.52
2019-03-30T22:56:42.492Z,101900.48
2019-03-30T22:59:11.267Z,101907.91
2019-03-30T23:01:40.365Z,101901.39
2019-03-30T23:04:09.068Z,101899.98
2019-03-30T23:06:37.550Z,101900.96
2019-03-30T23:09:06.762Z,101896.62
2019-03-30T23:11:35.566Z,101903.89
2019-03-30T23:14:04.195Z,101901.59
2019-03-30T23:16:32.746Z,101904.95
2019-03-30T23:19:01.522Z,101907.67
2019-03-30T23:21:30.027Z,101905.09
2019-03-30T23:23:58.506Z,101910.33
2019-03-30T23:26:27.082Z,101919.58
2019-03-30T23:28:55.549Z,101918.33
2019-03-30T23:31:24.054Z,101912.70
2019-03-30T23:33:52.606Z,101922.07
2019-03-30T23:36:21.346Z,101920.11
2019-03-30T23:38:49.839Z,101919.64
2019-03-30T23:41:18.515Z,101918.16
2019-03-30T23:43:47.007Z,101920.81
2019-03-30T23:46:15.518Z,101917.87
2019-03-30T23:48:44.107Z,101917.87
2019-03-30T23:51:12.833Z,101915.92
2019-03-30T23:53:41.320Z,101922.91
2019-03-30T23:56:22.308Z,101922.91
2019-03-30T23:58:51.371Z,101920.53
